Time;durP1;ratioP1;P1;durP2;ratioP2;P2;SDS_P1;SDS_P2;PMS_P1;PMS_P2;Temp;Humidity;BMP_temperature;BMP_pressure;BME280_temperature;BME280_humidity;BME280_pressure;Samples;Min_cycle;Max_cycle;Signal;HPM_P1;HPM_P2
2022/04/13 00:00:19;;;;;;;;;;;15.10;70.20;;;;;;689028;28;1118;-40
2022/04/13 00:00:58;;;;;;;;;;;15.10;70.20;;;;;;689019;28;1091;-39
2022/04/13 00:01:19;;;;;;;;;;;15.10;70.20;;;;;;689224;28;1039;-42
2022/04/13 00:01:40;;;;;;;;;;;15.10;70.20;;;;;;689146;28;1063;-39
2022/04/13 00:02:01;;;;;;;;;;;15.10;70.20;;;;;;689154;28;486;-39
2022/04/13 00:02:22;;;;;;;;;;;15.10;70.20;;;;;;689011;28;1032;-40
2022/04/13 00:02:42;;;;;;;;;;;15.10;70.20;;;;;;686455;28;1083;-40
2022/04/13 00:03:03;;;;;;;;;;;15.10;70.20;;;;;;683543;29;958;-39
2022/04/13 00:03:24;;;;;;;;;;;15.10;70.20;;;;;;683711;29;1050;-40
2022/04/13 00:03:46;;;;;;;;;;;15.10;70.10;;;;;;683698;29;980;-39
2022/04/13 00:04:07;;;;;;;;;;;15.10;70.20;;;;;;683819;29;1067;-39
2022/04/13 00:04:28;;;;;;;;;;;15.10;70.10;;;;;;684340;28;1134;-40
2022/04/13 00:04:49;;;;;;;;;;;15.10;70.10;;;;;;687135;28;1251;-42
2022/04/13 00:05:10;;;;;;;;;;;15.10;70.10;;;;;;688486;28;1130;-39
2022/04/13 00:05:31;;;;;;;;;;;15.10;70.10;;;;;;689215;28;1028;-40
2022/04/13 00:05:51;;;;;;;;;;;15.10;70.10;;;;;;689024;28;994;-39
2022/04/13 00:06:12;;;;;;;;;;;15.10;70.00;;;;;;689126;28;1027;-39
2022/04/13 00:06:38;;;;;;;;;;;15.10;70.00;;;;;;689099;28;1059;-41
2022/04/13 00:06:59;;;;;;;;;;;15.10;70.00;;;;;;689084;28;1098;-40
2022/04/13 00:07:20;;;;;;;;;;;15.10;70.00;;;;;;689081;28;1023;-41
2022/04/13 00:07:40;;;;;;;;;;;15.10;70.00;;;;;;689031;28;968;-41
2022/04/13 00:08:05;;;;;;;;;;;15.10;70.00;;;;;;689181;28;998;-41
2022/04/13 00:08:26;;;;;;;;;;;15.10;70.00;;;;;;688989;28;1006;-39
2022/04/13 00:08:47;;;;;;;;;;;15.10;70.00;;;;;;689028;28;997;-40
2022/04/13 00:09:08;;;;;;;;;;;15.10;70.00;;;;;;686422;28;1087;-39
2022/04/13 00:09:29;;;;;;;;;;;15.10;70.00;;;;;;686391;28;1122;-41
2022/04/13 00:09:49;;;;;;;;;;;15.10;70.00;;;;;;686443;28;1020;-39
2022/04/13 00:10:10;;;;;;;;;;;15.10;70.00;;;;;;686419;28;962;-42
2022/04/13 00:10:32;;;;;;;;;;;15.10;70.00;;;;;;683840;29;1028;-39
2022/04/13 00:10:52;;;;;;;;;;;15.10;70.00;;;;;;684092;28;1020;-39
2022/04/13 00:11:13;;;;;;;;;;;15.10;70.00;;;;;;686354;28;1083;-39
2022/04/13 00:11:34;;;;;;;;;;;15.10;70.00;;;;;;686467;28;1102;-39
2022/04/13 00:11:55;;;;;;;;;;;15.10;70.00;;;;;;686409;28;989;-40
2022/04/13 00:12:16;;;;;;;;;;;15.10;70.00;;;;;;687020;28;1082;-39
2022/04/13 00:12:37;;;;;;;;;;;15.10;70.00;;;;;;689129;28;1085;-40
2022/04/13 00:12:57;;;;;;;;;;;15.10;70.00;;;;;;689027;28;1061;-40
2022/04/13 00:13:18;;;;;;;;;;;15.00;69.90;;;;;;689064;28;1065;-39
2022/04/13 00:13:39;;;;;;;;;;;15.10;70.00;;;;;;689088;28;1929;-39
2022/04/13 00:14:00;;;;;;;;;;;15.00;69.90;;;;;;689109;28;1019;-40
2022/04/13 00:14:24;;;;;;;;;;;15.10;70.00;;;;;;689031;28;1040;-39
2022/04/13 00:14:45;;;;;;;;;;;15.10;70.00;;;;;;689069;28;1161;-40
2022/04/13 00:15:06;;;;;;;;;;;15.10;70.00;;;;;;689053;28;1092;-38
2022/04/13 00:15:27;;;;;;;;;;;15.00;69.90;;;;;;689093;28;745;-39
2022/04/13 00:15:47;;;;;;;;;;;15.10;70.00;;;;;;689022;28;1057;-39
2022/04/13 00:16:08;;;;;;;;;;;15.10;70.00;;;;;;689067;28;975;-40
2022/04/13 00:16:29;;;;;;;;;;;15.10;70.00;;;;;;683804;29;1079;-41
2022/04/13 00:16:54;;;;;;;;;;;15.10;70.00;;;;;;681077;29;1099;-40
2022/04/13 00:17:15;;;;;;;;;;;15.10;70.00;;;;;;683847;29;1020;-39
2022/04/13 00:17:36;;;;;;;;;;;15.10;70.00;;;;;;683615;28;1059;-39
2022/04/13 00:17:57;;;;;;;;;;;15.10;69.90;;;;;;683716;29;1118;-40
2022/04/13 00:18:17;;;;;;;;;;;15.10;70.00;;;;;;684740;28;1028;-39
2022/04/13 00:18:38;;;;;;;;;;;15.10;69.90;;;;;;686406;28;1115;-41
2022/04/13 00:18:59;;;;;;;;;;;15.00;69.90;;;;;;688604;28;932;-39
2022/04/13 00:19:21;;;;;;;;;;;15.10;69.90;;;;;;694635;28;1067;-39
2022/04/13 00:19:42;;;;;;;;;;;15.10;70.00;;;;;;694044;28;868;-41
2022/04/13 00:20:03;;;;;;;;;;;15.00;69.90;;;;;;691941;28;1033;-39
2022/04/13 00:20:24;;;;;;;;;;;15.00;69.90;;;;;;692078;28;1015;-39
2022/04/13 00:20:45;;;;;;;;;;;15.10;70.00;;;;;;691871;28;1028;-40
2022/04/13 00:21:06;;;;;;;;;;;15.00;69.90;;;;;;691802;28;1309;-40
2022/04/13 00:21:27;;;;;;;;;;;15.00;69.90;;;;;;691920;28;1015;-39
2022/04/13 00:21:48;;;;;;;;;;;15.00;69.90;;;;;;691717;28;1055;-40
2022/04/13 00:22:09;;;;;;;;;;;15.10;70.00;;;;;;691904;28;1035;-39
2022/04/13 00:22:29;;;;;;;;;;;15.10;70.00;;;;;;691805;28;1115;-42
2022/04/13 00:22:50;;;;;;;;;;;15.00;69.90;;;;;;691883;28;1020;-40
2022/04/13 00:23:11;;;;;;;;;;;15.00;69.90;;;;;;691792;28;1037;-39
2022/04/13 00:23:32;;;;;;;;;;;15.10;70.00;;;;;;691941;28;1011;-39
2022/04/13 00:23:53;;;;;;;;;;;15.10;69.90;;;;;;691909;28;1028;-40
2022/04/13 00:24:14;;;;;;;;;;;15.00;69.90;;;;;;692084;28;1059;-40
2022/04/13 00:24:34;;;;;;;;;;;15.10;69.90;;;;;;692117;28;955;-40
2022/04/13 00:24:55;;;;;;;;;;;15.10;69.90;;;;;;692076;28;1099;-40
2022/04/13 00:25:16;;;;;;;;;;;15.00;69.80;;;;;;692009;28;1067;-39
2022/04/13 00:25:39;;;;;;;;;;;15.00;69.80;;;;;;692043;28;1288;-41
2022/04/13 00:26:00;;;;;;;;;;;15.00;69.90;;;;;;691888;28;962;-39
2022/04/13 00:26:21;;;;;;;;;;;15.00;69.80;;;;;;692036;28;1024;-41
2022/04/13 00:26:42;;;;;;;;;;;15.10;69.90;;;;;;691985;28;1002;-42
2022/04/13 00:27:03;;;;;;;;;;;15.00;70.40;;;;;;692054;28;1078;-39
2022/04/13 00:27:23;;;;;;;;;;;15.10;69.90;;;;;;692005;28;1143;-39
2022/04/13 00:27:44;;;;;;;;;;;15.00;69.80;;;;;;692108;28;664;-39
2022/04/13 00:28:05;;;;;;;;;;;15.10;69.90;;;;;;691951;28;1089;-40
2022/04/13 00:28:26;;;;;;;;;;;15.00;69.80;;;;;;692079;28;1031;-39
2022/04/13 00:28:47;;;;;;;;;;;15.00;69.80;;;;;;691780;28;1269;-42
2022/04/13 00:29:09;;;;;;;;;;;15.00;69.80;;;;;;691689;28;1412;-43
2022/04/13 00:29:30;;;;;;;;;;;15.00;69.80;;;;;;691715;28;992;-40
2022/04/13 00:29:51;;;;;;;;;;;15.00;69.80;;;;;;689118;28;782;-41
2022/04/13 00:30:12;;;;;;;;;;;15.10;69.90;;;;;;688778;28;1107;-41
2022/04/13 00:30:32;;;;;;;;;;;15.10;69.90;;;;;;689097;28;1107;-41
2022/04/13 00:30:53;;;;;;;;;;;15.00;69.80;;;;;;689700;28;1043;-41
2022/04/13 00:31:14;;;;;;;;;;;15.00;69.90;;;;;;691743;28;984;-41
2022/04/13 00:31:35;;;;;;;;;;;15.00;69.80;;;;;;691850;28;1133;-43
2022/04/13 00:31:56;;;;;;;;;;;15.00;69.80;;;;;;691941;28;1083;-40
2022/04/13 00:32:17;;;;;;;;;;;15.00;69.80;;;;;;691661;28;1098;-39
2022/04/13 00:32:38;;;;;;;;;;;15.00;69.80;;;;;;691769;28;1034;-39
2022/04/13 00:32:59;;;;;;;;;;;15.00;69.80;;;;;;691874;28;1041;-39
2022/04/13 00:33:19;;;;;;;;;;;15.00;69.80;;;;;;692074;28;1011;-39
2022/04/13 00:33:40;;;;;;;;;;;15.00;69.80;;;;;;691941;28;1976;-43
2022/04/13 00:34:01;;;;;;;;;;;15.00;69.80;;;;;;692117;28;1014;-39
2022/04/13 00:34:22;;;;;;;;;;;15.00;69.80;;;;;;691914;28;1022;-39
2022/04/13 00:34:42;;;;;;;;;;;15.00;69.80;;;;;;692068;28;1009;-39
2022/04/13 00:35:04;;;;;;;;;;;15.00;69.80;;;;;;691708;28;1323;-39
2022/04/13 00:35:25;;;;;;;;;;;15.00;69.80;;;;;;691868;28;1081;-40
2022/04/13 00:35:46;;;;;;;;;;;15.00;69.80;;;;;;691831;28;1137;-42
2022/04/13 00:36:07;;;;;;;;;;;15.00;69.80;;;;;;691882;28;706;-39
2022/04/13 00:36:28;;;;;;;;;;;15.00;69.80;;;;;;691777;28;991;-39
2022/04/13 00:36:49;;;;;;;;;;;15.00;69.70;;;;;;691880;28;1684;-40
2022/04/13 00:37:09;;;;;;;;;;;15.00;69.70;;;;;;691773;28;1113;-43
2022/04/13 00:37:31;;;;;;;;;;;15.00;69.70;;;;;;691752;28;1037;-39
2022/04/13 00:37:51;;;;;;;;;;;15.00;69.70;;;;;;691688;28;1258;-40
2022/04/13 00:38:12;;;;;;;;;;;15.00;69.70;;;;;;691861;28;628;-39
2022/04/13 00:38:33;;;;;;;;;;;15.00;69.70;;;;;;691772;28;1063;-40
2022/04/13 00:38:54;;;;;;;;;;;15.00;69.70;;;;;;691852;28;1027;-39
2022/04/13 00:39:14;;;;;;;;;;;15.00;69.70;;;;;;689001;28;1027;-39
2022/04/13 00:39:35;;;;;;;;;;;15.00;69.60;;;;;;689153;28;1019;-41
2022/04/13 00:39:57;;;;;;;;;;;15.00;69.60;;;;;;689069;28;991;-40
2022/04/13 00:40:18;;;;;;;;;;;15.00;69.60;;;;;;689690;28;1027;-38
2022/04/13 00:40:39;;;;;;;;;;;15.00;69.60;;;;;;691718;28;1093;-39
2022/04/13 00:41:01;;;;;;;;;;;15.00;69.60;;;;;;689897;28;1027;-42
2022/04/13 00:41:22;;;;;;;;;;;15.00;69.70;;;;;;691712;28;1020;-40
2022/04/13 00:41:42;;;;;;;;;;;15.00;69.60;;;;;;691900;28;987;-39
2022/04/13 00:42:04;;;;;;;;;;;15.00;69.70;;;;;;691665;28;1051;-39
2022/04/13 00:42:25;;;;;;;;;;;15.00;69.70;;;;;;689101;28;990;-39
2022/04/13 00:42:46;;;;;;;;;;;15.00;69.70;;;;;;689734;28;1065;-39
2022/04/13 00:43:07;;;;;;;;;;;15.00;69.70;;;;;;691832;28;1035;-39
2022/04/13 00:43:27;;;;;;;;;;;15.00;69.70;;;;;;691932;28;1049;-39
2022/04/13 00:44:10;;;;;;;;;;;15.00;69.70;;;;;;691874;28;974;-40
2022/04/13 00:44:30;;;;;;;;;;;15.00;69.70;;;;;;691792;28;1113;-39
2022/04/13 00:44:51;;;;;;;;;;;15.00;69.70;;;;;;691802;28;1094;-39
2022/04/13 00:45:12;;;;;;;;;;;15.00;69.70;;;;;;691967;28;983;-40
2022/04/13 00:45:33;;;;;;;;;;;15.00;69.60;;;;;;691828;28;1004;-39
2022/04/13 00:45:54;;;;;;;;;;;15.00;69.70;;;;;;691761;28;981;-39
2022/04/13 00:46:15;;;;;;;;;;;15.00;69.60;;;;;;691819;28;1069;-40
2022/04/13 00:46:36;;;;;;;;;;;15.00;69.60;;;;;;692068;28;1047;-40
2022/04/13 00:46:57;;;;;;;;;;;15.00;69.60;;;;;;691949;28;1110;-41
2022/04/13 00:47:18;;;;;;;;;;;15.00;69.60;;;;;;692012;28;1031;-39
2022/04/13 00:47:39;;;;;;;;;;;15.00;69.50;;;;;;691903;28;1086;-38
2022/04/13 00:48:01;;;;;;;;;;;15.00;69.50;;;;;;692009;28;1063;-39
2022/04/13 00:48:29;;;;;;;;;;;15.00;69.50;;;;;;691754;28;1002;-42
2022/04/13 00:48:49;;;;;;;;;;;15.00;69.50;;;;;;691681;28;1066;-39
2022/04/13 00:49:10;;;;;;;;;;;15.00;69.50;;;;;;691763;28;1132;-39
2022/04/13 00:49:31;;;;;;;;;;;15.00;69.50;;;;;;691837;28;1086;-39
2022/04/13 00:49:54;;;;;;;;;;;15.00;69.50;;;;;;691685;28;1057;-39
2022/04/13 00:50:14;;;;;;;;;;;15.00;69.50;;;;;;691927;28;1018;-39
2022/04/13 00:50:35;;;;;;;;;;;15.00;69.50;;;;;;691805;28;992;-42
2022/04/13 00:50:56;;;;;;;;;;;15.00;69.50;;;;;;691763;28;1019;-39
2022/04/13 00:51:17;;;;;;;;;;;15.00;69.40;;;;;;689103;28;986;-39
2022/04/13 00:51:38;;;;;;;;;;;15.00;69.50;;;;;;689151;28;1012;-41
2022/04/13 00:51:59;;;;;;;;;;;15.00;69.40;;;;;;688884;28;1284;-40
2022/04/13 00:52:20;;;;;;;;;;;15.00;69.40;;;;;;689193;28;1089;-41
2022/04/13 00:52:43;;;;;;;;;;;15.00;69.40;;;;;;689015;28;982;-39
2022/04/13 00:53:04;;;;;;;;;;;15.00;69.40;;;;;;689909;28;1039;-42
2022/04/13 00:53:24;;;;;;;;;;;14.90;69.30;;;;;;689075;28;1121;-39
2022/04/13 00:53:45;;;;;;;;;;;15.00;69.40;;;;;;687175;28;1919;-40
2022/04/13 00:54:06;;;;;;;;;;;15.00;69.40;;;;;;689112;28;1061;-38
2022/04/13 00:54:28;;;;;;;;;;;15.00;69.40;;;;;;689116;28;1111;-39
2022/04/13 00:54:49;;;;;;;;;;;15.00;69.40;;;;;;688987;28;1032;-39
2022/04/13 00:55:10;;;;;;;;;;;15.00;70.00;;;;;;689638;28;1082;-42
2022/04/13 00:55:31;;;;;;;;;;;15.00;69.40;;;;;;692483;28;1128;-39
2022/04/13 00:55:57;;;;;;;;;;;15.00;69.40;;;;;;688505;28;964;-39
2022/04/13 00:56:23;;;;;;;;;;;14.90;69.40;;;;;;686460;28;1103;-38
2022/04/13 00:56:45;;;;;;;;;;;15.00;69.40;;;;;;688283;28;817;-42
2022/04/13 00:57:09;;;;;;;;;;;15.00;69.50;;;;;;688917;28;1048;-40
2022/04/13 00:57:30;;;;;;;;;;;15.00;69.50;;;;;;688945;28;1048;-41
2022/04/13 00:57:50;;;;;;;;;;;15.00;69.50;;;;;;691695;28;802;-38
2022/04/13 00:58:14;;;;;;;;;;;15.00;69.50;;;;;;691243;28;983;-40
2022/04/13 00:58:35;;;;;;;;;;;15.00;69.50;;;;;;691736;28;1125;-38
2022/04/13 00:59:06;;;;;;;;;;;15.00;69.50;;;;;;689114;28;1031;-40
2022/04/13 00:59:27;;;;;;;;;;;15.00;69.50;;;;;;689124;28;992;-39
2022/04/13 00:59:48;;;;;;;;;;;14.90;69.40;;;;;;689097;28;1023;-42
2022/04/13 01:00:12;;;;;;;;;;;15.00;69.40;;;;;;691411;28;1086;-41
2022/04/13 01:00:38;;;;;;;;;;;14.90;69.40;;;;;;691665;28;1099;-40
2022/04/13 01:01:00;;;;;;;;;;;15.00;69.40;;;;;;691894;28;730;-39
2022/04/13 01:01:22;;;;;;;;;;;15.00;69.40;;;;;;691707;28;1101;-39
2022/04/13 01:01:47;;;;;;;;;;;15.00;69.40;;;;;;689174;28;1018;-39
2022/04/13 01:02:08;;;;;;;;;;;15.00;69.40;;;;;;688645;28;1870;-39
2022/04/13 01:02:28;;;;;;;;;;;15.00;69.40;;;;;;689007;28;1025;-39
2022/04/13 01:02:49;;;;;;;;;;;15.00;69.40;;;;;;690995;28;976;-39
2022/04/13 01:03:10;;;;;;;;;;;15.00;69.40;;;;;;691813;28;1023;-39
2022/04/13 01:03:31;;;;;;;;;;;15.00;69.40;;;;;;690002;28;1048;-39
2022/04/13 01:03:52;;;;;;;;;;;15.00;69.40;;;;;;689103;28;1012;-39
2022/04/13 01:04:13;;;;;;;;;;;15.00;69.40;;;;;;689071;28;1139;-39
2022/04/13 01:04:33;;;;;;;;;;;14.90;69.30;;;;;;688642;28;1083;-39
2022/04/13 01:04:54;;;;;;;;;;;14.90;69.30;;;;;;686349;28;1016;-40
2022/04/13 01:05:15;;;;;;;;;;;15.00;69.40;;;;;;689678;28;1091;-39
2022/04/13 01:05:39;;;;;;;;;;;14.90;69.30;;;;;;692257;28;1108;-41
2022/04/13 01:06:00;;;;;;;;;;;15.00;69.40;;;;;;691832;28;727;-39
2022/04/13 01:06:21;;;;;;;;;;;15.00;69.30;;;;;;688912;28;1037;-39
2022/04/13 01:06:42;;;;;;;;;;;14.90;69.30;;;;;;689055;28;1027;-39
2022/04/13 01:07:03;;;;;;;;;;;14.90;69.30;;;;;;688979;28;1075;-42
2022/04/13 01:07:23;;;;;;;;;;;15.00;69.30;;;;;;689084;28;1079;-41
2022/04/13 01:07:44;;;;;;;;;;;15.00;69.30;;;;;;689011;28;984;-39
2022/04/13 01:08:06;;;;;;;;;;;15.00;69.30;;;;;;687040;28;861;-41
2022/04/13 01:08:28;;;;;;;;;;;15.00;69.30;;;;;;689009;28;1073;-42
2022/04/13 01:08:49;;;;;;;;;;;15.00;69.30;;;;;;686405;28;1020;-38
2022/04/13 01:09:11;;;;;;;;;;;15.00;69.30;;;;;;687156;28;1189;-40
2022/04/13 01:09:32;;;;;;;;;;;14.90;69.20;;;;;;689056;28;992;-40
2022/04/13 01:09:53;;;;;;;;;;;15.00;69.20;;;;;;689914;28;1082;-39
2022/04/13 01:10:13;;;;;;;;;;;15.00;69.20;;;;;;691692;28;1000;-42
2022/04/13 01:10:34;;;;;;;;;;;15.00;69.20;;;;;;689591;28;1110;-39
2022/04/13 01:10:55;;;;;;;;;;;14.90;69.20;;;;;;691739;28;1027;-40
2022/04/13 01:11:16;;;;;;;;;;;14.90;69.20;;;;;;691811;28;936;-40
2022/04/13 01:11:37;;;;;;;;;;;15.00;69.30;;;;;;691733;28;1031;-39
2022/04/13 01:11:58;;;;;;;;;;;14.90;69.20;;;;;;691736;28;1027;-40
2022/04/13 01:12:19;;;;;;;;;;;14.90;69.20;;;;;;691849;28;734;-39
2022/04/13 01:12:39;;;;;;;;;;;14.90;69.20;;;;;;691881;28;1101;-40
2022/04/13 01:13:03;;;;;;;;;;;14.90;69.20;;;;;;691998;28;959;-39
2022/04/13 01:13:24;;;;;;;;;;;15.00;69.30;;;;;;691863;28;1102;-39
2022/04/13 01:13:45;;;;;;;;;;;15.00;69.30;;;;;;691947;28;1980;-43
2022/04/13 01:14:06;;;;;;;;;;;15.00;69.30;;;;;;691666;28;821;-39
2022/04/13 01:14:26;;;;;;;;;;;15.00;69.30;;;;;;691741;28;1099;-41
2022/04/13 01:14:47;;;;;;;;;;;14.90;69.30;;;;;;691722;28;1058;-40
2022/04/13 01:15:08;;;;;;;;;;;15.00;69.40;;;;;;691791;28;1034;-40
2022/04/13 01:15:29;;;;;;;;;;;14.90;69.40;;;;;;691684;28;1011;-40
2022/04/13 01:15:50;;;;;;;;;;;14.90;69.30;;;;;;691776;28;719;-39
2022/04/13 01:16:12;;;;;;;;;;;15.00;69.40;;;;;;691806;28;2015;-39
2022/04/13 01:16:34;;;;;;;;;;;15.00;69.40;;;;;;691793;28;1024;-39
2022/04/13 01:16:55;;;;;;;;;;;15.00;69.40;;;;;;691565;28;1019;-39
2022/04/13 01:17:16;;;;;;;;;;;14.90;69.30;;;;;;691544;28;1019;-40
2022/04/13 01:17:39;;;;;;;;;;;14.90;69.30;;;;;;687423;28;1243;-39
2022/04/13 01:18:00;;;;;;;;;;;15.00;69.40;;;;;;688827;28;1044;-39
2022/04/13 01:18:21;;;;;;;;;;;14.90;69.30;;;;;;688827;28;991;-39
2022/04/13 01:18:41;;;;;;;;;;;15.00;69.40;;;;;;686141;28;1040;-41
2022/04/13 01:19:02;;;;;;;;;;;14.90;69.30;;;;;;686222;28;1118;-40
2022/04/13 01:19:23;;;;;;;;;;;14.90;69.30;;;;;;681693;29;1723;-42
2022/04/13 01:19:46;;;;;;;;;;;14.90;69.30;;;;;;683601;29;1062;-40
2022/04/13 01:20:07;;;;;;;;;;;14.90;69.40;;;;;;683533;28;1083;-42
2022/04/13 01:20:28;;;;;;;;;;;15.00;69.40;;;;;;683414;29;1479;-40
2022/04/13 01:20:51;;;;;;;;;;;14.90;69.40;;;;;;683481;29;1037;-43
2022/04/13 01:21:15;;;;;;;;;;;14.90;69.40;;;;;;685814;28;1197;-42
2022/04/13 01:21:48;;;;;;;;;;;14.90;69.40;;;;;;688865;28;1066;-40
2022/04/13 01:22:12;;;;;;;;;;;14.90;69.40;;;;;;691325;28;1031;-41
2022/04/13 01:22:33;;;;;;;;;;;14.90;69.40;;;;;;688828;28;1090;-41
2022/04/13 01:22:54;;;;;;;;;;;15.00;69.40;;;;;;689018;28;1075;-43
2022/04/13 01:23:14;;;;;;;;;;;15.00;69.40;;;;;;688908;28;1138;-42
2022/04/13 01:23:35;;;;;;;;;;;15.00;69.30;;;;;;687630;28;1008;-41
2022/04/13 01:23:56;;;;;;;;;;;15.00;69.30;;;;;;688045;28;1137;-41
2022/04/13 01:24:17;;;;;;;;;;;15.00;69.30;;;;;;686176;28;1087;-44
2022/04/13 01:24:37;;;;;;;;;;;15.00;69.30;;;;;;688595;28;1019;-41
2022/04/13 01:24:58;;;;;;;;;;;15.00;69.30;;;;;;688893;28;1090;-42
2022/04/13 01:25:19;;;;;;;;;;;15.10;69.30;;;;;;688825;28;1021;-41
2022/04/13 01:25:48;;;;;;;;;;;15.00;69.20;;;;;;688926;28;1019;-43
2022/04/13 01:26:10;;;;;;;;;;;15.00;69.20;;;;;;690345;28;1097;-42
2022/04/13 01:26:30;;;;;;;;;;;15.00;69.20;;;;;;691452;28;999;-43
2022/04/13 01:26:52;;;;;;;;;;;15.00;69.20;;;;;;691553;28;1031;-43
2022/04/13 01:27:16;;;;;;;;;;;15.00;69.20;;;;;;691665;28;1131;-41
2022/04/13 01:27:37;;;;;;;;;;;15.00;69.10;;;;;;691579;28;1178;-41
2022/04/13 01:27:58;;;;;;;;;;;15.00;69.20;;;;;;691504;28;971;-46
2022/04/13 01:28:19;;;;;;;;;;;15.00;69.10;;;;;;691468;28;1024;-44
2022/04/13 01:28:40;;;;;;;;;;;15.00;69.10;;;;;;688792;28;797;-43
2022/04/13 01:29:10;;;;;;;;;;;15.10;69.20;;;;;;688843;28;1109;-40
2022/04/13 01:29:36;;;;;;;;;;;15.00;69.20;;;;;;688894;28;1032;-42
2022/04/13 01:29:58;;;;;;;;;;;15.10;69.20;;;;;;688854;28;1359;-42
2022/04/13 01:30:23;;;;;;;;;;;15.10;69.20;;;;;;688936;28;1296;-40
2022/04/13 01:30:44;;;;;;;;;;;15.10;69.30;;;;;;688709;28;1052;-43
2022/04/13 01:31:05;;;;;;;;;;;15.10;69.20;;;;;;688885;28;1122;-46
2022/04/13 01:31:28;;;;;;;;;;;15.00;69.20;;;;;;688505;28;1556;-44
2022/04/13 01:31:53;;;;;;;;;;;15.00;69.20;;;;;;688935;28;1055;-42
2022/04/13 01:32:15;;;;;;;;;;;15.00;69.20;;;;;;685856;28;994;-40
2022/04/13 01:32:38;;;;;;;;;;;15.00;69.20;;;;;;685993;28;1035;-40
2022/04/13 01:33:00;;;;;;;;;;;15.10;69.30;;;;;;686105;28;1124;-42
2022/04/13 01:33:31;;;;;;;;;;;15.10;69.30;;;;;;684073;28;1005;-40
2022/04/13 01:33:52;;;;;;;;;;;15.00;69.20;;;;;;686260;28;1027;-44
2022/04/13 01:34:16;;;;;;;;;;;15.00;69.20;;;;;;688869;28;1074;-42
2022/04/13 01:34:37;;;;;;;;;;;15.00;69.20;;;;;;688788;28;1034;-40
2022/04/13 01:34:58;;;;;;;;;;;15.10;69.30;;;;;;688836;28;1031;-40
2022/04/13 01:35:19;;;;;;;;;;;15.00;69.20;;;;;;691230;28;1533;-39
2022/04/13 01:35:39;;;;;;;;;;;15.00;69.20;;;;;;691588;28;1011;-40
2022/04/13 01:36:03;;;;;;;;;;;15.10;69.20;;;;;;691508;28;1007;-41
2022/04/13 01:36:26;;;;;;;;;;;15.10;69.30;;;;;;691703;28;1004;-42
2022/04/13 01:36:52;;;;;;;;;;;15.00;69.10;;;;;;691412;28;1106;-40
2022/04/13 01:37:13;;;;;;;;;;;15.00;69.10;;;;;;688923;28;1131;-42
2022/04/13 01:37:35;;;;;;;;;;;15.00;69.10;;;;;;686164;28;1091;-41
2022/04/13 01:37:58;;;;;;;;;;;15.10;69.20;;;;;;686374;28;739;-41
2022/04/13 01:38:19;;;;;;;;;;;15.10;69.20;;;;;;686086;28;1036;-40
2022/04/13 01:38:41;;;;;;;;;;;15.10;69.20;;;;;;686246;28;1032;-43
2022/04/13 01:39:09;;;;;;;;;;;15.10;69.10;;;;;;688345;28;1103;-40
2022/04/13 01:39:30;;;;;;;;;;;15.00;69.00;;;;;;688179;28;1008;-41
2022/04/13 01:39:58;;;;;;;;;;;15.10;69.10;;;;;;688729;28;1403;-41
2022/04/13 01:40:22;;;;;;;;;;;15.00;69.00;;;;;;688827;28;1434;-39
2022/04/13 01:40:44;;;;;;;;;;;15.00;68.90;;;;;;688816;28;1125;-42
2022/04/13 01:41:05;;;;;;;;;;;15.10;69.00;;;;;;688731;28;992;-40
2022/04/13 01:41:33;;;;;;;;;;;15.00;68.90;;;;;;688914;28;1117;-40
2022/04/13 01:42:05;;;;;;;;;;;15.10;69.00;;;;;;688950;28;986;-40
2022/04/13 01:42:32;;;;;;;;;;;15.00;68.90;;;;;;688927;28;1110;-43
2022/04/13 01:42:59;;;;;;;;;;;15.00;68.90;;;;;;688723;28;1111;-39
2022/04/13 01:43:26;;;;;;;;;;;15.00;68.90;;;;;;691399;28;1087;-40
2022/04/13 01:43:53;;;;;;;;;;;15.00;68.90;;;;;;691667;28;889;-40
2022/04/13 01:44:21;;;;;;;;;;;15.00;68.90;;;;;;691405;28;1078;-40
2022/04/13 01:44:42;;;;;;;;;;;15.00;68.90;;;;;;691605;28;873;-41
2022/04/13 01:45:03;;;;;;;;;;;15.00;68.90;;;;;;691457;28;1014;-41
2022/04/13 01:45:24;;;;;;;;;;;15.00;68.90;;;;;;691521;28;989;-42
2022/04/13 01:45:45;;;;;;;;;;;15.00;68.90;;;;;;691457;28;766;-43
2022/04/13 01:46:05;;;;;;;;;;;15.00;68.90;;;;;;691472;28;963;-43
2022/04/13 01:46:40;;;;;;;;;;;15.00;68.90;;;;;;688885;28;988;-40
2022/04/13 01:47:19;;;;;;;;;;;15.10;69.00;;;;;;678057;29;1069;-39
2022/04/13 01:47:41;;;;;;;;;;;15.00;68.90;;;;;;678003;29;1037;-40
2022/04/13 01:48:01;;;;;;;;;;;15.00;68.90;;;;;;677918;29;542;-40
2022/04/13 01:48:22;;;;;;;;;;;15.00;68.90;;;;;;680218;29;1212;-40
2022/04/13 01:48:43;;;;;;;;;;;15.00;68.90;;;;;;680833;29;1108;-42
2022/04/13 01:49:04;;;;;;;;;;;15.00;68.80;;;;;;680941;29;829;-41
2022/04/13 01:49:25;;;;;;;;;;;15.00;68.90;;;;;;680408;29;991;-42
2022/04/13 01:49:45;;;;;;;;;;;15.10;68.90;;;;;;680084;29;955;-41
2022/04/13 01:50:09;;;;;;;;;;;15.00;68.80;;;;;;681372;29;1240;-40
2022/04/13 01:50:30;;;;;;;;;;;15.00;68.80;;;;;;683421;29;1271;-39
2022/04/13 01:50:51;;;;;;;;;;;15.00;68.80;;;;;;680900;29;1030;-40
2022/04/13 01:51:12;;;;;;;;;;;15.00;68.80;;;;;;680713;29;996;-40
2022/04/13 01:51:32;;;;;;;;;;;15.10;68.90;;;;;;680851;29;1040;-41
2022/04/13 01:51:53;;;;;;;;;;;15.00;68.80;;;;;;680800;29;974;-40
2022/04/13 01:52:16;;;;;;;;;;;15.00;68.80;;;;;;680630;29;1262;-40
2022/04/13 01:52:40;;;;;;;;;;;15.10;68.80;;;;;;680824;29;1127;-40
2022/04/13 01:53:02;;;;;;;;;;;15.00;68.70;;;;;;680890;29;1072;-42
2022/04/13 01:53:24;;;;;;;;;;;15.00;68.70;;;;;;680671;29;935;-40
2022/04/13 01:53:46;;;;;;;;;;;15.00;69.00;;;;;;680733;29;1985;-40
2022/04/13 01:54:07;;;;;;;;;;;15.00;68.70;;;;;;680705;29;1478;-41
2022/04/13 01:54:31;;;;;;;;;;;15.00;68.70;;;;;;682229;29;1024;-40
2022/04/13 01:54:54;;;;;;;;;;;15.00;68.70;;;;;;683434;29;1000;-40
2022/04/13 01:55:16;;;;;;;;;;;15.00;68.70;;;;;;683487;29;1071;-40
2022/04/13 01:55:41;;;;;;;;;;;15.00;68.70;;;;;;683454;29;1031;-40
2022/04/13 01:56:06;;;;;;;;;;;15.00;68.70;;;;;;683521;29;1042;-40
2022/04/13 01:56:26;;;;;;;;;;;15.00;68.70;;;;;;683389;29;955;-45
2022/04/13 01:56:51;;;;;;;;;;;15.00;68.70;;;;;;683571;29;810;-41
2022/04/13 01:57:16;;;;;;;;;;;15.00;68.70;;;;;;678297;29;1127;-41
2022/04/13 01:57:37;;;;;;;;;;;15.00;68.60;;;;;;677952;29;1009;-45
2022/04/13 01:57:58;;;;;;;;;;;15.00;68.60;;;;;;677948;29;1021;-42
2022/04/13 01:58:20;;;;;;;;;;;15.00;68.60;;;;;;678133;29;1321;-39
2022/04/13 01:58:45;;;;;;;;;;;15.00;68.60;;;;;;678210;29;1031;-41
2022/04/13 01:59:12;;;;;;;;;;;15.00;68.60;;;;;;682655;29;1418;-39
2022/04/13 01:59:35;;;;;;;;;;;15.00;68.60;;;;;;683336;29;1419;-40
2022/04/13 01:59:59;;;;;;;;;;;15.00;68.60;;;;;;680843;29;1139;-40
2022/04/13 02:00:21;;;;;;;;;;;15.00;68.60;;;;;;683546;29;1111;-42
2022/04/13 02:00:43;;;;;;;;;;;15.00;68.60;;;;;;683473;29;1130;-40
2022/04/13 02:01:06;;;;;;;;;;;15.10;68.70;;;;;;680802;29;996;-39
2022/04/13 02:01:37;;;;;;;;;;;15.00;68.60;;;;;;681011;29;1469;-40
2022/04/13 02:02:04;;;;;;;;;;;15.10;68.70;;;;;;675438;29;1439;-39
2022/04/13 02:02:25;;;;;;;;;;;15.00;68.60;;;;;;675571;29;1076;-43
2022/04/13 02:02:47;;;;;;;;;;;15.00;68.60;;;;;;676072;29;1605;-46
2022/04/13 02:03:08;;;;;;;;;;;15.10;68.60;;;;;;678137;29;1573;-42
2022/04/13 02:03:30;;;;;;;;;;;15.10;68.60;;;;;;678226;29;1065;-40
2022/04/13 02:03:51;;;;;;;;;;;15.00;68.60;;;;;;681608;29;1561;-42
2022/04/13 02:04:15;;;;;;;;;;;15.10;68.60;;;;;;683478;29;1084;-40
2022/04/13 02:04:36;;;;;;;;;;;15.00;68.60;;;;;;680839;29;1052;-39
2022/04/13 02:04:57;;;;;;;;;;;15.00;68.60;;;;;;680788;29;989;-41
2022/04/13 02:05:17;;;;;;;;;;;15.10;68.70;;;;;;680699;29;973;-40
2022/04/13 02:05:38;;;;;;;;;;;15.10;68.70;;;;;;680832;29;1028;-40
2022/04/13 02:05:59;;;;;;;;;;;15.10;68.70;;;;;;680716;29;1068;-41
2022/04/13 02:06:20;;;;;;;;;;;15.00;68.60;;;;;;681296;29;685;-40
2022/04/13 02:06:41;;;;;;;;;;;15.00;68.60;;;;;;683401;29;1065;-41
2022/04/13 02:07:01;;;;;;;;;;;15.10;68.70;;;;;;683406;29;1129;-40
2022/04/13 02:07:22;;;;;;;;;;;15.00;68.70;;;;;;683510;29;735;-40
2022/04/13 02:07:43;;;;;;;;;;;15.00;68.70;;;;;;680844;29;1013;-39
2022/04/13 02:08:04;;;;;;;;;;;15.00;68.60;;;;;;680704;29;1079;-40
2022/04/13 02:08:26;;;;;;;;;;;15.10;68.70;;;;;;680852;29;1040;-43
2022/04/13 02:08:48;;;;;;;;;;;15.00;68.70;;;;;;680764;29;1080;-40
2022/04/13 02:09:09;;;;;;;;;;;15.10;68.70;;;;;;680856;29;990;-43
2022/04/13 02:09:30;;;;;;;;;;;15.00;68.60;;;;;;681751;29;1091;-41
2022/04/13 02:09:51;;;;;;;;;;;15.00;68.60;;;;;;683439;29;963;-41
2022/04/13 02:10:13;;;;;;;;;;;15.10;68.70;;;;;;683430;29;1048;-45
2022/04/13 02:10:34;;;;;;;;;;;15.00;68.60;;;;;;683512;29;1171;-42
2022/04/13 02:10:55;;;;;;;;;;;15.00;68.60;;;;;;683419;29;1040;-39
2022/04/13 02:11:15;;;;;;;;;;;15.00;68.60;;;;;;683506;29;1071;-41
2022/04/13 02:11:36;;;;;;;;;;;15.00;68.60;;;;;;680318;29;1020;-39
2022/04/13 02:11:57;;;;;;;;;;;15.00;68.60;;;;;;678085;29;1107;-39
2022/04/13 02:12:18;;;;;;;;;;;15.00;68.50;;;;;;678181;29;1057;-40